Ailey, GA

2:22 PM EDT on September 16, 2014 (GMT -0400)
Vidalia Municipal | Change Station
CLOSE
Current Station
Airport
Location: Vidalia,
Elevation: 276 ft
Nearby Weather Stations

Elev 276 ft 32.19 °N, 82.37 °W | Updated 7 minutes ago

Mostly Cloudy
Mostly Cloudy
86 °F
Feels Like 93 °F
N
0
Wind Variable Wind from North

Today
High -- | Low -- °F
--% Chance of Precip.
Yesterday
High -- | Low -- °F
Precip. -- in
7:14 AM 7:34 PM
Last Quarter, 43% visible
Pressure 30.01 in
Visibility 10.0 miles
Clouds Scattered Clouds 2600 ft
Scattered Clouds 3100 ft
Mostly Cloudy 4000 ft
Heat Index 93 °F
Dew Point 73 °F
Humidity 66%
Rainfall 0.00 in
Snow Depth Not available.
UV 5 out of 12
Pollen 7.40 out of 12
Air Quality Not available.
Flu Activity Not available.
METAR KVDI 161815Z AUTO 00000KT 10SM SCT026 SCT031 BKN040 30/23 A3001 RMK AO2 LTG DSNT S

More Conditions Fewer Conditions

Pressure 30.01 in
Visibility 10.0 miles
Clouds Scattered Clouds 2600 ft
Scattered Clouds 3100 ft
Mostly Cloudy 4000 ft
Heat Index 93 °F
Dew Point 73 °F
Humidity 66%
Rainfall 0.00 in
Snow Depth Not available.
UV 5 out of 12
Pollen 7.40 out of 12
Air Quality Not available.
Flu Activity Not available.
METAR KVDI 161815Z AUTO 00000KT 10SM SCT026 SCT031 BKN040 30/23 A3001 RMK AO2 LTG DSNT S

More Conditions Fewer Conditions

10-Day Weather Forecast

Almanac

Astronomy

Sep. 16, 2014 Rise Set
Actual Time 7:14 AM EDT 7:34 PM EDT
Civil Twilight 6:49 AM EDT 7:59 PM EDT
Nautical Twilight 6:21 AM EDT 8:27 PM EDT
Astronomical Twilight 5:52 AM EDT 8:56 PM EDT
Moon 12:37 AM EDT 2:42 PM EDT
Length of Visible Light 13h 09m
Length of Day
12h 20m
Tomorrow will be 1m 57s shorter.
Last Quarter, 43% of the Moon is Illuminated
Today
Last Quarter
Sep 24
New
Oct 1
First Quarter
Oct 8
Full
Oct 15
Last Quarter

Today's Extremes

State Highs State Lows

Community

WunderPhotos

Upload Photos

1,753,852 photos uploaded!

WunderBlogs® & News

Nearby

Snow Depth

Station Depth Elevation
No new snow has been reported.

Earthquake Activity

City Distance Mag. Time & Date
No recent earthquake activity has been reported nearby.
Minimum magnitude displayed is 2.5.

Coastal Water Temperatures

Place Temperature
No Stations Reporting

Nearby Weather Stations